This is the latest recevied weather packets stored in our database for station/object KC1TWD. If no packets are shown the sender has not sent any weather packets the latest 1 day(s).
| Time | Temp. | Humidity | Pressure | Rain* | Wind** | Luminosity | Snow |
|---|---|---|---|---|---|---|---|
| 1778007144 | 28.33° C | 34% | 1004.1 hPa | 0 mm | 0.45 m/s, 190° | - | - |
| 1778006840 | 27.78° C | 34% | 1004.1 hPa | 0 mm | 0.89 m/s, 115° | - | - |
| 1778006538 | 28.33° C | 34% | 1004.5 hPa | 0 mm | 0.89 m/s, 266° | - | - |
| 1778006234 | 28.89° C | 35% | 1004.4 hPa | 0 mm | 0.45 m/s, 229° | - | - |
| 1778005932 | 28.33° C | 34% | 1004.7 hPa | 0 mm | 0.45 m/s, 139° | - | - |
| 1778005628 | 27.78° C | 35% | 1004.8 hPa | 0 mm | 0.45 m/s, 67° | - | - |
| 1778005326 | 28.33° C | 34% | 1004.9 hPa | 0 mm | 0 m/s | - | - |
| 1778005021 | 27.78° C | 34% | 1004.8 hPa | 0 mm | 2.24 m/s, 175° | - | - |
| 1778004720 | 27.78° C | 35% | 1005.1 hPa | 0 mm | 2.24 m/s, 145° | - | - |
| 1778004415 | 27.78° C | 36% | 1005.1 hPa | 0 mm | 0 m/s | - | - |
| 1778004113 | 28.33° C | 33% | 1005.1 hPa | 0 mm | 0 m/s | - | - |
| 1778003809 | 27.78° C | 35% | 1005.2 hPa | 0 mm | 0.89 m/s, 333° | - | - |
| 1778003505 | 28.33° C | 35% | 1005.1 hPa | 0 mm | 0 m/s | - | - |
| 1778003202 | 28.33° C | 35% | 1005.1 hPa | 0 mm | 0.45 m/s, 54° | - | - |
| 1778002898 | 28.89° C | 34% | 1005.4 hPa | 0 mm | 0.45 m/s, 333° | - | - |
| 1778002595 | 28.33° C | 34% | 1005.3 hPa | 0 mm | 0.45 m/s, 204° | - | - |
| 1778002292 | 28.33° C | 35% | 1005.2 hPa | 0 mm | 0.89 m/s, 123° | - | - |
| 1778001989 | 28.33° C | 37% | 1005.3 hPa | 0 mm | 0 m/s | - | - |
| 1778001686 | 28.33° C | 36% | 1005.4 hPa | 0 mm | 1.34 m/s, 215° | - | - |
| 1778001380 | 27.78° C | 35% | 1005.4 hPa | 0 mm | 0.45 m/s, 111° | - | - |
| 1778001078 | 27.22° C | 37% | 1005.3 hPa | 0 mm | 0 m/s | - | - |
| 1778000775 | 27.22° C | 35% | 1005.6 hPa | 0 mm | 0.45 m/s, 245° | - | - |
| 1778000472 | 27.22° C | 37% | 1005.7 hPa | 0 mm | 0.45 m/s, 326° | - | - |
| 1778000172 | 27.22° C | 37% | 1005.7 hPa | 0 mm | 0.45 m/s, 137° | - | - |
| 1777999868 | 27.78° C | 36% | 1005.9 hPa | 0 mm | 0.45 m/s, 220° | - | - |
* Rain latest hour (hover to see other rain measurements)
** Current wind speed in m/s (hover to see current wind gust speed)